createdAt,value
2023-01-05T00:12:42.857Z,3.3
2023-01-05T00:26:42.867Z,3.5
2023-01-05T00:40:42.876Z,3.3
2023-01-05T00:54:42.950Z,3.4
2023-01-05T01:08:43.000Z,3.4
2023-01-05T01:16:04.632Z,3.7
2023-01-05T01:30:05.101Z,4.0
2023-01-05T01:33:57.683Z,3.9
2023-01-05T01:47:58.005Z,4.2
2023-01-05T02:01:58.332Z,4.0
2023-01-05T02:15:58.322Z,3.8
2023-01-05T02:30:58.372Z,3.7
2023-01-05T02:44:58.495Z,3.7
2023-01-05T02:58:58.536Z,3.8
2023-01-05T03:12:58.557Z,3.5
2023-01-05T03:26:58.574Z,3.1
2023-01-05T03:40:58.601Z,3.1
2023-01-05T03:54:58.600Z,2.9
2023-01-05T04:08:58.741Z,2.9
2023-01-05T04:22:58.718Z,3.4
2023-01-05T04:36:58.759Z,3.5
2023-01-05T04:50:58.884Z,3.5
2023-01-05T05:04:58.820Z,4.1
2023-01-05T05:18:58.878Z,4.4
2023-01-05T05:32:58.931Z,5.0
2023-01-05T05:46:58.916Z,4.9
2023-01-05T06:00:58.930Z,5.0
2023-01-05T06:14:58.918Z,5.0
2023-01-05T06:28:58.977Z,5.0
2023-01-05T06:42:58.996Z,4.4
2023-01-05T06:58:01.135Z,4.0
2023-01-05T07:12:59.045Z,3.9
2023-01-05T07:27:59.058Z,4.1
2023-01-05T07:42:59.073Z,4.4
2023-01-05T07:57:59.050Z,4.8
2023-01-05T08:12:59.063Z,5.6
2023-01-05T08:27:59.096Z,6.5
2023-01-05T08:42:59.095Z,7.1
2023-01-05T08:57:59.171Z,7.4
2023-01-05T09:12:59.198Z,8.0
2023-01-05T09:27:59.299Z,8.1
2023-01-05T09:42:59.274Z,8.6
2023-01-05T09:57:59.268Z,9.2
2023-01-05T10:12:59.346Z,10.0
2023-01-05T10:25:56.963Z,10.0
2023-01-05T10:40:56.859Z,10.0
2023-01-05T10:55:56.916Z,10.0
2023-01-05T11:10:57.458Z,10.7
2023-01-05T11:25:57.602Z,10.8
2023-01-05T11:40:57.425Z,10.5
2023-01-05T11:55:57.552Z,10.6
2023-01-05T12:10:57.495Z,11.1
2023-01-05T12:25:57.546Z,11.1
2023-01-05T12:40:57.569Z,10.9
2023-01-05T12:55:57.660Z,11.4
2023-01-05T13:10:57.683Z,11.6
2023-01-05T13:25:57.686Z,11.1
2023-01-05T13:40:57.703Z,10.7
2023-01-05T13:55:57.705Z,10.4
2023-01-05T14:10:57.861Z,9.7
2023-01-05T14:25:57.937Z,9.3
2023-01-05T14:40:57.940Z,9.3
2023-01-05T14:55:58.148Z,9.6
2023-01-05T15:10:58.073Z,9.4
2023-01-05T15:26:02.737Z,9.3
2023-01-05T15:40:58.158Z,9.0
2023-01-05T15:55:58.085Z,8.9
2023-01-05T16:10:58.140Z,8.6
2023-01-05T16:24:58.166Z,8.6
2023-01-05T16:38:58.262Z,8.5
2023-01-05T16:52:58.245Z,8.5
2023-01-05T17:06:58.404Z,8.1
2023-01-05T17:20:58.424Z,7.8
2023-01-05T17:34:58.432Z,7.3
2023-01-05T17:48:58.496Z,6.9
2023-01-05T18:02:58.619Z,6.4
2023-01-05T18:16:58.735Z,6.4
2023-01-05T18:30:58.660Z,6.6
2023-01-05T18:44:59.851Z,6.8
2023-01-05T18:58:58.693Z,7.0
2023-01-05T19:12:58.736Z,7.6
2023-01-05T19:26:58.797Z,7.6
2023-01-05T19:40:58.846Z,7.6
2023-01-05T19:54:58.860Z,7.4
2023-01-05T20:08:58.869Z,7.5
2023-01-05T20:22:58.873Z,7.4
2023-01-05T20:36:58.883Z,7.5
2023-01-05T20:50:59.045Z,7.4
2023-01-05T21:04:59.085Z,7.5
2023-01-05T21:19:01.169Z,7.8
2023-01-05T21:32:59.056Z,7.7
2023-01-05T21:46:59.006Z,7.6
2023-01-05T22:00:59.115Z,7.7
2023-01-05T22:14:59.120Z,7.6
2023-01-05T22:28:59.145Z,7.7
2023-01-05T22:42:59.162Z,7.7
2023-01-05T22:56:59.152Z,7.6
2023-01-05T23:10:59.325Z,7.7
2023-01-05T23:24:59.360Z,7.7
2023-01-05T23:38:59.403Z,7.6
2023-01-05T23:52:59.357Z,7.8
